Terminal Aerodrome Forecast
Issued by NWS Pueblo, CO

Home | Current Version | Previous Version | Text Only | Print | Product List | Glossary On
Versions: 1 2 3 4 5 6 7 8 9 10 11 12
000
FTUS45 KPUB 302332
TAFALS
TAF
KALS 302332Z 3100/3124 VRB05KT P6SM FEW200
     FM311700 17006KT P6SM FEW200
     FM312000 21010KT P6SM FEW140 SCT200=

USA.gov is the U.S. government's official web portal to all federal, state and local government web resources and services.